Time;durP1;ratioP1;P1;durP2;ratioP2;P2;SDS_P1;SDS_P2;PMS_P1;PMS_P2;Temp;Humidity;BMP_temperature;BMP_pressure;BME280_temperature;BME280_humidity;BME280_pressure;Samples;Min_cycle;Max_cycle;Signal;HPM_P1;HPM_P2
2023/07/07 00:01:44;;;;;;;21.55;9.40;;;;;;;24.26;55.50;100921.41;4974274;28;20411;-75
2023/07/07 00:04:09;;;;;;;23.30;9.20;;;;;;;24.24;55.23;100927.88;4973412;28;20395;-76
2023/07/07 00:06:35;;;;;;;22.83;9.60;;;;;;;24.25;55.26;100939.53;4973393;28;20391;-75
2023/07/07 00:09:02;;;;;;;23.37;9.23;;;;;;;24.25;54.96;100934.09;4973264;28;20399;-75
2023/07/07 00:11:28;;;;;;;22.35;9.43;;;;;;;24.23;55.26;100938.97;4955835;28;21007;-75
2023/07/07 00:13:54;;;;;;;23.77;9.47;;;;;;;24.25;55.15;100944.94;4972828;28;20391;-75
2023/07/07 00:16:22;;;;;;;22.70;9.05;;;;;;;24.17;55.13;100935.41;4973234;28;20466;-75
2023/07/07 00:18:48;;;;;;;21.33;9.52;;;;;;;24.24;55.03;100936.00;4973682;28;20480;-74
2023/07/07 00:21:14;;;;;;;22.45;9.57;;;;;;;24.34;55.07;100940.69;4973350;28;20387;-75
2023/07/07 00:23:40;;;;;;;20.93;8.93;;;;;;;24.36;54.82;100938.56;4972152;28;20470;-75
2023/07/07 00:26:08;;;;;;;22.25;9.10;;;;;;;24.36;54.93;100938.56;4973138;28;20471;-75
2023/07/07 00:28:34;;;;;;;22.85;9.45;;;;;;;24.31;54.87;100932.25;4972874;28;20395;-74
2023/07/07 00:31:00;;;;;;;21.88;9.43;;;;;;;24.33;54.92;100939.06;4973236;28;20379;-75
2023/07/07 00:33:26;;;;;;;22.25;8.88;;;;;;;24.31;55.06;100941.22;4972968;28;20380;-75
2023/07/07 00:35:51;;;;;;;19.67;8.55;;;;;;;24.23;55.04;100936.25;4972945;28;20800;-75
2023/07/07 00:38:18;;;;;;;20.47;8.80;;;;;;;24.16;55.21;100941.88;4972817;28;20462;-75
2023/07/07 00:40:43;;;;;;;24.42;9.70;;;;;;;24.18;55.25;100944.31;4972812;28;20596;-75
2023/07/07 00:43:14;;;;;;;25.98;9.73;;;;;;;24.25;55.01;100947.66;4972384;28;20945;-74
2023/07/07 00:45:40;;;;;;;21.45;8.60;;;;;;;24.33;54.78;100957.22;4972715;28;20398;-75
2023/07/07 00:48:08;;;;;;;20.80;8.80;;;;;;;24.31;54.65;100956.63;4972708;28;20384;-75
2023/07/07 00:50:48;;;;;;;17.55;8.32;;;;;;;24.24;54.66;100956.88;4972654;28;20394;-75
2023/07/07 00:53:14;;;;;;;22.88;8.80;;;;;;;24.18;54.82;100952.44;4972963;28;20380;-74
2023/07/07 00:56:03;;;;;;;22.07;8.93;;;;;;;24.08;55.18;100946.94;4972801;28;20800;-74
2023/07/07 00:58:29;;;;;;;21.33;8.57;;;;;;;24.04;55.51;100954.75;4972420;28;20406;-75
2023/07/07 01:01:01;;;;;;;23.35;8.55;;;;;;;24.14;55.19;100962.16;4972567;28;20391;-75
2023/07/07 01:03:37;;;;;;;24.30;8.95;;;;;;;24.12;55.12;100951.59;4893116;28;2312902;-74
2023/07/07 01:06:06;;;;;;;25.40;8.90;;;;;;;24.16;54.82;100950.00;4973470;28;20428;-75
2023/07/07 01:08:34;;;;;;;21.98;7.97;;;;;;;24.20;54.43;100953.00;4973288;28;20399;-75
2023/07/07 01:10:59;;;;;;;23.23;8.53;;;;;;;24.21;54.38;100946.53;4973171;28;20853;-75
2023/07/07 01:13:26;;;;;;;27.92;8.93;;;;;;;24.17;54.43;100951.66;4973734;28;20394;-75
2023/07/07 01:15:57;;;;;;;18.98;7.70;;;;;;;24.12;54.74;100948.88;4974555;28;20470;-75
2023/07/07 01:18:38;;;;;;;21.80;8.35;;;;;;;24.00;54.98;100942.78;4973493;28;20392;-74
2023/07/07 01:21:15;;;;;;;21.70;8.18;;;;;;;23.89;54.96;100943.75;4973003;28;20871;-75
2023/07/07 01:24:28;;;;;;;22.55;8.00;;;;;;;23.93;54.81;100950.28;4972524;28;20886;-75
2023/07/07 01:27:26;;;;;;;21.60;7.77;;;;;;;23.93;54.73;100940.28;4973080;28;20853;-74
2023/07/07 01:30:05;;;;;;;21.60;7.85;;;;;;;23.97;54.45;100946.84;4987956;28;20686;-74
2023/07/07 01:32:32;;;;;;;21.98;8.25;;;;;;;23.90;54.46;100939.97;4972247;28;20394;-74
2023/07/07 01:35:03;;;;;;;20.10;7.93;;;;;;;23.94;54.43;100946.53;4973500;28;20383;-74
2023/07/07 01:37:29;;;;;;;19.87;7.70;;;;;;;23.83;54.61;100940.16;4972821;28;20396;-74
2023/07/07 01:39:55;;;;;;;23.55;8.45;;;;;;;23.85;54.39;100932.59;4972494;28;20530;-74
2023/07/07 01:42:28;;;;;;;29.13;8.43;;;;;;;23.80;54.75;100941.47;4972500;28;20442;-74
2023/07/07 01:45:10;;;;;;;21.80;8.30;;;;;;;23.84;54.37;100942.63;4972571;28;20399;-75
2023/07/07 01:47:38;;;;;;;20.63;8.00;;;;;;;23.93;53.99;100937.59;4972400;28;20478;-75
2023/07/07 01:50:12;;;;;;;23.13;8.07;;;;;;;23.93;53.85;100934.03;4972606;28;20375;-74
2023/07/07 01:52:51;;;;;;;25.33;8.48;;;;;;;23.92;53.88;100916.97;4972235;28;20390;-74
2023/07/07 01:55:16;;;;;;;24.15;8.73;;;;;;;23.90;54.04;100924.53;4971613;28;20387;-75
2023/07/07 01:57:45;;;;;;;25.70;8.37;;;;;;;23.90;53.98;100929.97;4972121;28;20380;-75
2023/07/07 02:00:13;;;;;;;19.00;7.97;;;;;;;23.93;54.00;100923.22;4971902;28;20402;-76
2023/07/07 02:02:39;;;;;;;20.98;8.10;;;;;;;23.88;54.26;100940.22;4971509;28;20494;-76
2023/07/07 02:05:05;;;;;;;18.90;7.80;;;;;;;23.83;54.37;100922.03;4971810;28;20427;-76
2023/07/07 02:07:31;;;;;;;16.85;7.65;;;;;;;23.88;54.15;100924.00;4972204;28;20478;-76
2023/07/07 02:09:56;;;;;;;18.30;8.10;;;;;;;23.93;54.01;100926.75;4973574;28;20399;-76
2023/07/07 02:12:21;;;;;;;21.43;8.60;;;;;;;23.88;53.99;100921.28;4967510;28;20491;-76
2023/07/07 02:14:47;;;;;;;20.93;8.83;;;;;;;23.89;54.08;100938.34;4965354;28;20409;-76
2023/07/07 02:17:15;;;;;;;23.13;8.93;;;;;;;23.84;54.21;100920.13;4967899;28;20416;-76
2023/07/07 02:19:44;;;;;;;20.85;8.90;;;;;;;23.74;54.74;100939.75;4967007;28;20403;-76
2023/07/07 02:22:10;;;;;;;26.02;10.02;;;;;;;23.70;55.02;100938.63;4961202;28;20407;-74
2023/07/07 02:24:35;;;;;;;21.95;8.82;;;;;;;23.79;54.53;100939.81;4949609;28;20662;-74
2023/07/07 02:27:01;;;;;;;24.57;9.40;;;;;;;23.79;54.43;100936.31;4967919;28;20688;-75
2023/07/07 02:29:27;;;;;;;27.48;10.13;;;;;;;23.78;54.79;100946.28;4966593;28;20465;-75
2023/07/07 02:31:52;;;;;;;25.58;9.20;;;;;;;23.77;54.70;100936.56;4966602;28;20395;-75
2023/07/07 02:34:18;;;;;;;26.98;9.80;;;;;;;23.80;54.75;100946.88;4969699;28;20441;-75
2023/07/07 02:36:44;;;;;;;22.13;9.60;;;;;;;23.83;54.76;100943.69;4967636;28;20570;-75
2023/07/07 02:39:09;;;;;;;25.95;9.57;;;;;;;23.81;54.78;100945.84;4973203;28;20899;-75
2023/07/07 02:41:35;;;;;;;22.17;9.27;;;;;;;23.79;54.96;100939.81;4969243;28;20446;-75
2023/07/07 02:44:00;;;;;;;24.80;9.37;;;;;;;23.78;55.05;100945.50;4969301;28;20475;-75
2023/07/07 02:46:25;;;;;;;23.37;9.43;;;;;;;23.80;55.17;100946.88;4969046;28;20403;-75
2023/07/07 02:48:51;;;;;;;21.70;10.10;;;;;;;23.85;55.27;100956.97;4969276;28;20395;-75
2023/07/07 02:51:17;;;;;;;27.33;9.87;;;;;;;23.87;55.40;100959.44;4971427;28;20438;-75
2023/07/07 02:53:42;;;;;;;21.80;9.70;;;;;;;23.88;55.34;100947.50;4971488;28;20383;-75
2023/07/07 02:56:08;;;;;;;23.80;9.52;;;;;;;23.90;55.35;100953.53;4971635;28;20387;-75
2023/07/07 02:58:34;;;;;;;24.70;9.60;;;;;;;23.90;55.25;100948.09;4971779;28;20394;-74
2023/07/07 03:01:12;;;;;;;26.88;10.35;;;;;;;23.93;55.49;100963.81;4971781;28;20390;-74
2023/07/07 03:03:44;;;;;;;23.88;9.50;;;;;;;23.92;55.50;100954.88;4971597;28;20419;-74
2023/07/07 03:06:12;;;;;;;21.83;9.18;;;;;;;24.01;55.67;100968.81;4971176;28;20391;-74
2023/07/07 03:08:37;;;;;;;21.88;9.52;;;;;;;23.97;55.50;100963.06;4971891;28;20388;-75
2023/07/07 03:11:07;;;;;;;18.90;9.17;;;;;;;23.88;55.94;100956.47;4971590;28;20402;-74
2023/07/07 03:13:33;;;;;;;21.08;9.55;;;;;;;23.92;56.12;100959.50;4971906;28;20856;-74
2023/07/07 03:16:06;;;;;;;24.52;9.60;;;;;;;23.87;56.50;100948.59;4971870;28;20407;-75
2023/07/07 03:18:31;;;;;;;24.98;10.15;;;;;;;23.98;56.30;100958.47;4971409;28;20427;-75
2023/07/07 03:20:57;;;;;;;21.00;9.63;;;;;;;24.03;56.22;100945.00;4971245;28;20403;-74
2023/07/07 03:23:22;;;;;;;19.63;9.33;;;;;;;24.09;56.10;100951.28;4954377;28;20423;-75
2023/07/07 03:25:48;;;;;;;19.63;9.33;;;;;;;24.07;56.23;100943.41;4970517;28;21089;-76
2023/07/07 03:28:14;;;;;;;21.20;9.50;;;;;;;24.18;56.06;100958.72;4971372;28;20890;-75
2023/07/07 03:30:39;;;;;;;22.65;9.27;;;;;;;24.27;55.98;100956.34;4971402;28;20391;-75
2023/07/07 03:33:05;;;;;;;20.87;9.17;;;;;;;24.30;55.89;100961.25;4972995;28;20459;-75
2023/07/07 03:35:30;;;;;;;22.83;9.73;;;;;;;24.40;55.87;100966.78;4971683;28;20860;-75
2023/07/07 03:37:55;;;;;;;18.80;9.10;;;;;;;24.44;55.87;100958.94;4986076;28;20493;-75
2023/07/07 03:40:21;;;;;;;19.23;9.37;;;;;;;24.54;55.71;100947.41;4989326;28;20393;-75
2023/07/07 03:42:46;;;;;;;23.83;9.90;;;;;;;24.66;55.38;100953.47;4989228;28;20417;-75
2023/07/07 03:45:12;;;;;;;20.67;9.37;;;;;;;24.87;55.08;100956.38;4990290;28;20481;-75
2023/07/07 03:47:37;;;;;;;22.20;9.32;;;;;;;24.94;54.84;100957.78;4992990;28;20393;-75
2023/07/07 03:50:03;;;;;;;22.17;8.97;;;;;;;25.03;54.72;100957.28;4993035;28;20485;-74
2023/07/07 03:52:29;;;;;;;25.10;9.57;;;;;;;25.10;54.62;100953.28;4993558;28;20386;-75
2023/07/07 03:54:54;;;;;;;20.65;9.23;;;;;;;25.24;54.48;100953.66;4993554;28;20480;-74
2023/07/07 03:57:19;;;;;;;23.10;8.97;;;;;;;25.31;54.41;100958.84;4991665;28;20855;-75
2023/07/07 03:59:45;;;;;;;22.17;9.23;;;;;;;25.33;54.08;100951.25;4979646;28;20401;-75
2023/07/07 04:02:12;;;;;;;21.77;8.67;;;;;;;25.45;54.00;100956.50;4978362;28;20435;-75
2023/07/07 04:04:38;;;;;;;22.20;9.20;;;;;;;25.48;53.78;100959.50;4975889;28;20397;-76
2023/07/07 04:07:03;;;;;;;22.30;8.88;;;;;;;25.51;53.81;100964.38;4992876;28;20397;-75
2023/07/07 04:09:29;;;;;;;15.82;8.40;;;;;;;25.52;53.73;100952.44;4993207;28;20435;-76
2023/07/07 04:11:54;;;;;;;21.10;8.93;;;;;;;25.60;53.35;100948.41;4992270;28;20385;-75
2023/07/07 04:14:20;;;;;;;21.55;9.02;;;;;;;25.69;53.38;100962.28;4993627;28;20416;-75
2023/07/07 04:16:46;;;;;;;19.10;8.95;;;;;;;25.62;53.45;100962.53;4993160;28;20481;-75
2023/07/07 04:19:11;;;;;;;16.03;8.30;;;;;;;25.63;53.30;100958.75;4994064;28;20390;-77
2023/07/07 04:21:37;;;;;;;19.52;8.38;;;;;;;25.51;53.52;100955.41;4993725;28;20759;-75
2023/07/07 04:24:04;;;;;;;20.27;9.07;;;;;;;25.39;54.02;100969.22;4993549;28;20569;-75
2023/07/07 04:26:31;;;;;;;24.58;9.38;;;;;;;25.34;53.97;100959.13;4993190;28;20386;-75
2023/07/07 04:29:00;;;;;;;23.80;9.43;;;;;;;25.39;53.88;100971.94;4993469;28;20386;-75
2023/07/07 04:31:28;;;;;;;20.27;9.20;;;;;;;25.42;53.91;100967.88;4993732;28;20440;-75
2023/07/07 04:33:54;;;;;;;21.98;8.65;;;;;;;25.49;53.52;100971.97;4994062;28;20382;-76
2023/07/07 04:36:21;;;;;;;23.87;9.10;;;;;;;25.54;53.53;100969.28;4993580;28;20396;-75
2023/07/07 04:38:47;;;;;;;19.20;8.48;;;;;;;25.56;53.58;100986.13;4993813;28;20457;-75
2023/07/07 04:41:12;;;;;;;20.52;8.90;;;;;;;25.55;53.49;100970.94;4993388;28;20400;-75
2023/07/07 04:43:42;;;;;;;19.13;8.27;;;;;;;25.55;53.58;100973.66;4993188;28;20874;-75
2023/07/07 04:46:10;;;;;;;27.33;9.15;;;;;;;25.60;53.76;100985.59;4993289;28;20390;-75
2023/07/07 04:48:36;;;;;;;20.98;8.98;;;;;;;25.58;53.72;100985.06;4992538;28;20389;-77
2023/07/07 04:51:07;;;;;;;21.80;8.68;;;;;;;25.72;53.37;100986.19;4992883;28;20405;-75
2023/07/07 04:53:34;;;;;;;21.58;8.98;;;;;;;25.76;53.13;100985.38;4992656;28;20401;-76
2023/07/07 04:56:02;;;;;;;23.33;8.67;;;;;;;25.74;53.53;100986.75;4992856;28;20731;-75
2023/07/07 04:58:28;;;;;;;23.73;8.77;;;;;;;25.82;53.21;100991.69;4991632;28;20406;-76
2023/07/07 05:01:06;;;;;;;22.80;8.80;;;;;;;25.85;53.31;100988.41;4991803;28;20396;-76
2023/07/07 05:03:32;;;;;;;23.13;8.60;;;;;;;25.74;53.41;100986.75;4991751;28;20428;-76
2023/07/07 05:05:58;;;;;;;17.87;7.43;;;;;;;25.60;53.93;100997.25;4991736;28;20389;-76
2023/07/07 05:08:23;;;;;;;21.50;8.20;;;;;;;25.49;54.08;100995.59;4991996;28;20473;-77
2023/07/07 05:10:48;;;;;;;14.70;7.67;;;;;;;25.52;54.08;100998.59;4992355;28;20394;-76
2023/07/07 05:13:14;;;;;;;16.17;7.67;;;;;;;25.67;53.52;101002.47;4974357;28;20418;-76
2023/07/07 05:15:39;;;;;;;19.43;7.57;;;;;;;25.69;53.37;100992.97;4974934;28;20473;-75
2023/07/07 05:18:05;;;;;;;18.07;8.03;;;;;;;25.75;52.98;100991.91;4990034;28;20408;-75
2023/07/07 05:20:30;;;;;;;13.43;7.28;;;;;;;25.66;53.25;100987.25;4972887;28;20398;-75
2023/07/07 05:22:56;;;;;;;23.00;8.67;;;;;;;25.72;53.03;100989.72;4990744;28;20417;-75
2023/07/07 05:25:21;;;;;;;15.00;7.70;;;;;;;25.73;53.14;100996.81;4989795;28;20394;-76
2023/07/07 05:27:47;;;;;;;19.43;7.60;;;;;;;25.71;52.84;100995.41;4990704;28;20434;-76
2023/07/07 05:30:12;;;;;;;21.70;7.60;;;;;;;25.73;53.07;100996.81;4973367;28;20405;-75
2023/07/07 05:32:38;;;;;;;17.08;7.43;;;;;;;25.87;52.57;100994.41;4991162;28;20390;-76
2023/07/07 05:35:04;;;;;;;17.67;6.30;;;;;;;25.82;52.54;100993.56;4973497;28;20919;-75
2023/07/07 05:37:29;;;;;;;14.68;6.88;;;;;;;25.82;52.60;100991.69;4986675;28;20417;-76
2023/07/07 05:39:54;;;;;;;10.73;6.18;;;;;;;25.75;52.68;100993.81;4981462;28;20413;-76
2023/07/07 05:42:20;;;;;;;15.37;6.20;;;;;;;25.67;52.60;101000.56;4990811;28;20952;-76
2023/07/07 05:44:45;;;;;;;16.43;7.17;;;;;;;25.74;52.72;101003.84;4990822;28;20859;-76
2023/07/07 05:47:11;;;;;;;16.83;6.37;;;;;;;25.88;52.08;100992.53;4991396;28;20866;-76
2023/07/07 05:49:36;;;;;;;11.67;6.33;;;;;;;26.01;51.94;100999.38;4996983;28;20397;-76
2023/07/07 05:52:02;;;;;;;17.98;7.00;;;;;;;26.00;51.71;101001.28;4989113;28;20417;-76
2023/07/07 05:54:27;;;;;;;13.20;6.57;;;;;;;25.98;51.69;101003.44;4986083;28;20503;-76
2023/07/07 05:56:54;;;;;;;16.03;6.87;;;;;;;26.09;51.55;101004.28;4991333;28;20790;-76
2023/07/07 05:59:19;;;;;;;18.00;6.57;;;;;;;25.99;51.72;101002.34;4990901;28;20394;-75
2023/07/07 06:01:45;;;;;;;11.13;5.63;;;;;;;25.92;51.68;101005.28;4974930;28;20414;-76
2023/07/07 06:04:10;;;;;;;14.33;6.00;;;;;;;25.99;51.63;100998.84;4974674;28;20406;-75
2023/07/07 06:06:36;;;;;;;15.67;6.43;;;;;;;26.00;51.42;101005.88;4991421;28;20487;-75
2023/07/07 06:09:02;;;;;;;16.43;6.83;;;;;;;26.03;51.38;101008.06;4991578;28;20408;-76
2023/07/07 06:11:27;;;;;;;12.15;6.10;;;;;;;25.94;51.60;101000.44;4991944;28;20401;-76
2023/07/07 06:13:52;;;;;;;16.17;6.80;;;;;;;26.04;51.39;101015.97;4990492;28;20400;-76
2023/07/07 06:16:18;;;;;;;17.07;7.17;;;;;;;26.02;51.40;101009.16;4990183;28;20469;-75
2023/07/07 06:18:44;;;;;;;10.32;5.85;;;;;;;26.18;51.04;101010.84;4991974;28;20393;-75
2023/07/07 06:21:09;;;;;;;15.13;6.70;;;;;;;26.27;51.06;101022.84;4992057;28;20420;-75
2023/07/07 06:23:35;;;;;;;15.30;6.27;;;;;;;26.28;50.82;101016.28;4974805;28;20798;-75
2023/07/07 06:26:01;;;;;;;12.95;6.18;;;;;;;26.23;50.74;101019.00;4991080;28;20512;-76
2023/07/07 06:28:26;;;;;;;17.27;6.50;;;;;;;26.38;50.51;101025.56;4990702;28;20398;-75
2023/07/07 06:30:52;;;;;;;9.57;5.85;;;;;;;26.22;50.89;101028.25;4990531;28;20441;-76
2023/07/07 06:33:19;;;;;;;11.82;5.82;;;;;;;26.34;50.55;101019.84;4991038;28;20390;-75
2023/07/07 06:35:45;;;;;;;14.83;6.50;;;;;;;26.56;49.83;101029.66;4988892;28;20401;-76
2023/07/07 06:38:11;;;;;;;16.35;6.53;;;;;;;26.61;49.67;101029.72;4985088;28;20398;-75
2023/07/07 06:40:36;;;;;;;12.20;6.00;;;;;;;26.54;49.91;101032.66;4983852;28;20406;-75
2023/07/07 06:43:02;;;;;;;19.47;6.63;;;;;;;26.69;49.65;101050.94;4975571;28;20510;-76
2023/07/07 06:45:28;;;;;;;18.48;6.90;;;;;;;26.57;49.96;101040.28;4984675;28;20767;-77
2023/07/07 06:47:54;;;;;;;12.20;6.28;;;;;;;26.51;49.74;101035.94;4990373;28;20766;-76
2023/07/07 06:50:35;;;;;;;15.68;6.07;;;;;;;26.56;49.51;101038.66;4991048;28;20783;-75
2023/07/07 06:53:01;;;;;;;14.23;6.05;;;;;;;26.67;49.38;101045.78;4990277;28;20452;-76
2023/07/07 06:55:26;;;;;;;15.90;6.67;;;;;;;26.87;49.13;101038.72;4992068;28;20401;-77
2023/07/07 06:57:52;;;;;;;14.77;5.63;;;;;;;26.80;49.13;101041.69;4991651;28;20389;-75
2023/07/07 07:00:18;;;;;;;17.02;6.25;;;;;;;27.01;49.09;101042.53;4988035;28;20393;-76
2023/07/07 07:02:44;;;;;;;14.00;5.93;;;;;;;27.03;48.83;101043.06;4977962;28;20494;-76
2023/07/07 07:05:10;;;;;;;20.90;5.93;;;;;;;26.84;49.42;101053.66;4972460;28;20433;-75
2023/07/07 07:07:35;;;;;;;15.13;6.53;;;;;;;27.06;49.24;101047.97;4972282;28;20430;-76
2023/07/07 07:10:02;;;;;;;14.10;5.50;;;;;;;27.11;48.80;101060.75;4971449;28;20869;-76
2023/07/07 07:12:31;;;;;;;20.08;7.00;;;;;;;27.21;48.96;101054.50;4972332;28;20395;-74
2023/07/07 07:14:57;;;;;;;16.40;7.05;;;;;;;27.30;48.66;101050.16;4977025;28;20812;-76
2023/07/07 07:17:23;;;;;;;17.08;6.18;;;;;;;27.26;48.90;101062.63;4985855;28;20405;-75
2023/07/07 07:19:49;;;;;;;11.55;5.85;;;;;;;27.35;48.43;101054.78;4991074;28;20912;-75
2023/07/07 07:22:14;;;;;;;11.60;6.57;;;;;;;27.26;48.60;101054.47;4992089;28;20449;-75
2023/07/07 07:24:41;;;;;;;16.60;6.23;;;;;;;27.48;48.54;101059.66;4984458;28;20410;-75
2023/07/07 07:27:07;;;;;;;18.58;6.18;;;;;;;27.56;47.64;101052.84;4977668;28;20396;-75
2023/07/07 07:29:32;;;;;;;15.43;6.22;;;;;;;27.37;48.14;101056.16;4994623;28;20656;-76
2023/07/07 07:31:58;;;;;;;15.87;6.70;;;;;;;27.62;48.18;101059.88;4994208;28;20409;-75
2023/07/07 07:34:24;;;;;;;11.40;5.93;;;;;;;27.82;47.62;101056.28;4995415;28;20393;-77
2023/07/07 07:36:51;;;;;;;18.40;5.95;;;;;;;27.63;47.53;101062.34;4994704;28;20487;-77
2023/07/07 07:39:18;;;;;;;16.87;6.10;;;;;;;27.39;47.48;101058.59;4978206;28;20390;-75
2023/07/07 07:41:46;;;;;;;18.40;6.30;;;;;;;27.63;47.52;101048.72;4976210;28;22381;-77
2023/07/07 07:44:13;;;;;;;18.33;6.00;;;;;;;27.73;46.85;101064.25;5006308;28;20523;-76
2023/07/07 07:46:39;;;;;;;14.63;5.70;;;;;;;27.55;47.09;101062.91;4972440;28;20398;-76
2023/07/07 07:49:04;;;;;;;14.70;6.00;;;;;;;27.55;47.13;101059.38;4993774;28;20389;-75
2023/07/07 07:51:30;;;;;;;9.38;5.43;;;;;;;27.54;47.10;101055.84;4985373;28;20391;-76
2023/07/07 07:53:55;;;;;;;18.57;6.63;;;;;;;27.56;47.00;101059.09;4971192;28;20380;-77
2023/07/07 07:56:20;;;;;;;14.60;6.03;;;;;;;27.79;46.86;101067.75;4974124;28;20722;-78
2023/07/07 07:58:47;;;;;;;12.47;5.97;;;;;;;27.95;46.74;101063.13;4974183;28;20470;-77
2023/07/07 08:01:13;;;;;;;13.07;5.88;;;;;;;27.98;46.82;101062.53;4975828;28;20398;-76
2023/07/07 08:03:38;;;;;;;10.52;5.75;;;;;;;28.12;46.77;101071.75;4974494;28;20513;-77
2023/07/07 08:06:04;;;;;;;10.53;5.13;;;;;;;28.18;45.85;101086.16;4975611;28;20864;-77
2023/07/07 08:08:29;;;;;;;15.67;5.60;;;;;;;28.30;45.19;101070.28;4975418;28;20955;-76
2023/07/07 08:10:55;;;;;;;13.20;5.63;;;;;;;28.55;45.56;101071.28;4975338;28;20876;-75
2023/07/07 08:13:20;;;;;;;13.80;5.47;;;;;;;28.72;44.44;101070.88;4975204;28;20384;-75
2023/07/07 08:15:46;;;;;;;15.23;5.43;;;;;;;29.02;43.67;101079.97;4975127;28;20860;-75
2023/07/07 08:18:11;;;;;;;14.10;5.22;;;;;;;29.19;43.36;101074.09;4975798;28;21013;-77
2023/07/07 08:20:36;;;;;;;11.60;4.77;;;;;;;29.39;42.87;101086.75;4976757;28;20853;-77
2023/07/07 08:23:02;;;;;;;15.33;5.70;;;;;;;29.42;42.69;101086.19;4975833;28;20423;-75
2023/07/07 08:25:28;;;;;;;13.80;5.67;;;;;;;29.57;42.49;101094.25;4975002;28;20788;-75
2023/07/07 08:27:54;;;;;;;16.73;5.35;;;;;;;29.50;42.24;101094.56;4974902;28;20458;-75
2023/07/07 08:30:20;;;;;;;11.77;5.05;;;;;;;29.62;42.26;101093.34;4974887;28;20743;-76
2023/07/07 08:32:46;;;;;;;12.90;5.18;;;;;;;29.42;41.58;101097.91;4974258;28;20395;-76
2023/07/07 08:35:11;;;;;;;12.38;5.03;;;;;;;29.25;41.51;101103.81;4974923;28;20394;-76
2023/07/07 08:37:37;;;;;;;10.75;4.20;;;;;;;29.34;40.80;101082.97;4974410;28;20406;-76
2023/07/07 08:40:04;;;;;;;10.73;4.20;;;;;;;29.25;41.21;101084.69;4974196;28;20399;-76
2023/07/07 08:42:39;;;;;;;15.13;5.03;;;;;;;29.59;41.18;101092.03;4975018;28;20407;-75
2023/07/07 08:45:13;;;;;;;11.20;4.55;;;;;;;29.52;40.61;101084.16;4974728;28;20420;-76
2023/07/07 08:47:57;;;;;;;18.95;5.20;;;;;;;29.72;40.84;101080.41;4974827;28;20738;-75
2023/07/07 08:50:43;;;;;;;10.38;3.58;;;;;;;29.35;40.00;101089.25;4974482;28;20400;-75
2023/07/07 08:53:50;;;;;;;15.47;4.70;;;;;;;29.22;41.12;101073.53;4974449;28;20387;-75
2023/07/07 08:56:44;;;;;;;14.32;4.80;;;;;;;29.85;40.95;101084.38;4964904;28;20392;-74
2023/07/07 08:59:12;;;;;;;17.20;5.07;;;;;;;29.96;40.37;101090.53;4976730;28;20426;-75
2023/07/07 09:02:02;;;;;;;17.42;5.60;;;;;;;29.85;39.80;101091.78;5002203;28;20881;-76
2023/07/07 09:04:33;;;;;;;12.85;4.53;;;;;;;29.57;39.68;101099.72;5000583;28;20410;-75
2023/07/07 09:07:28;;;;;;;15.10;4.88;;;;;;;29.45;39.87;101096.53;5001170;28;20400;-76
2023/07/07 09:10:28;;;;;;;15.07;5.13;;;;;;;29.74;39.78;101102.81;5002540;28;20423;-77
2023/07/07 09:13:01;;;;;;;17.38;4.70;;;;;;;29.38;39.90;101090.59;5011118;28;20387;-76
2023/07/07 09:15:34;;;;;;;14.85;3.97;;;;;;;28.94;40.49;101117.69;5011213;28;20404;-75
2023/07/07 09:18:19;;;;;;;17.35;4.75;;;;;;;29.01;40.57;101097.41;5012583;28;20726;-78
2023/07/07 09:20:52;;;;;;;10.60;4.30;;;;;;;29.34;40.44;101090.34;4995657;28;20466;-76
2023/07/07 09:23:21;;;;;;;13.05;4.30;;;;;;;29.57;39.68;101120.72;5011748;28;20404;-75
2023/07/07 09:26:07;;;;;;;14.02;4.78;;;;;;;29.54;39.53;101089.34;5012736;28;20392;-76
2023/07/07 09:28:42;;;;;;;12.73;4.88;;;;;;;29.76;40.03;101093.53;5012775;28;20730;-76
2023/07/07 09:31:28;;;;;;;13.63;4.57;;;;;;;29.86;39.11;101094.22;5013149;28;20391;-75
2023/07/07 09:33:54;;;;;;;15.27;4.70;;;;;;;29.59;39.18;101086.56;4995599;28;20406;-75
2023/07/07 09:36:26;;;;;;;10.27;4.63;;;;;;;29.56;39.47;101100.78;5012610;28;20467;-75
2023/07/07 09:39:11;;;;;;;14.50;4.85;;;;;;;29.30;39.71;101094.78;5012423;28;20423;-76
2023/07/07 09:41:44;;;;;;;12.70;4.07;;;;;;;28.86;40.49;101092.91;5012619;28;20449;-75
2023/07/07 09:44:31;;;;;;;16.10;5.07;;;;;;;29.07;40.42;101109.94;5011765;28;20422;-77
2023/07/07 09:47:23;;;;;;;13.68;4.88;;;;;;;29.29;39.74;101109.53;4995323;28;20387;-75
2023/07/07 09:50:23;;;;;;;15.27;4.45;;;;;;;29.03;39.87;101123.34;5012664;28;20403;-77
2023/07/07 09:53:10;;;;;;;17.30;4.97;;;;;;;29.45;39.08;101102.00;5005287;28;20415;-77
2023/07/07 09:55:36;;;;;;;14.43;4.88;;;;;;;29.72;38.85;101104.19;5012207;28;20396;-75
2023/07/07 09:58:14;;;;;;;16.10;5.72;;;;;;;29.80;38.98;101116.44;5012941;28;20895;-76
2023/07/07 10:00:41;;;;;;;12.43;4.57;;;;;;;29.68;39.02;101094.94;5013191;28;20384;-76
2023/07/07 10:03:34;;;;;;;10.63;5.10;;;;;;;29.84;38.83;101109.28;5013605;28;20570;-76
2023/07/07 10:06:04;;;;;;;18.30;5.53;;;;;;;29.94;38.24;101100.97;5012218;28;20384;-74
2023/07/07 10:08:30;;;;;;;13.90;4.93;;;;;;;29.72;38.63;101101.47;5012061;28;20384;-75
2023/07/07 10:11:22;;;;;;;15.52;5.38;;;;;;;29.97;38.46;101092.19;5010518;28;20980;-76
2023/07/07 10:13:52;;;;;;;18.00;5.27;;;;;;;29.93;39.25;101091.94;5006858;28;20479;-75
2023/07/07 10:17:03;;;;;;;12.63;5.00;;;;;;;30.32;39.38;101101.03;5000701;28;20728;-76
2023/07/07 10:19:28;;;;;;;13.93;5.28;;;;;;;30.37;39.08;101090.06;5001776;28;20519;-76
2023/07/07 10:21:54;;;;;;;16.73;6.07;;;;;;;30.45;38.56;101088.56;4999237;28;20509;-76
2023/07/07 10:24:19;;;;;;;18.30;5.83;;;;;;;30.58;39.06;101084.31;5004301;28;20493;-75
2023/07/07 10:26:47;;;;;;;11.75;5.53;;;;;;;30.80;38.47;101089.97;5004355;28;20473;-77
2023/07/07 10:29:17;;;;;;;9.52;3.47;;;;;;;30.53;37.39;101095.34;5002985;28;20388;-76
2023/07/07 10:31:46;;;;;;;9.45;3.22;;;;;;;30.25;37.14;101097.84;4983683;28;20773;-77
2023/07/07 10:34:26;;;;;;;13.93;4.37;;;;;;;30.77;37.20;101074.16;4995411;28;20499;-76
2023/07/07 10:36:54;;;;;;;10.60;3.57;;;;;;;30.87;36.08;101076.72;5004512;28;20703;-80
2023/07/07 10:39:22;;;;;;;17.95;5.45;;;;;;;30.67;36.67;101074.31;4986139;28;20925;-77
2023/07/07 10:41:47;;;;;;;15.65;4.95;;;;;;;30.85;35.98;101073.47;4983349;28;20473;-76
2023/07/07 10:44:13;;;;;;;13.80;4.30;;;;;;;30.67;36.03;101077.06;4984000;28;20876;-76
2023/07/07 10:46:38;;;;;;;13.30;4.70;;;;;;;30.43;36.91;101080.69;4984808;28;20429;-75
2023/07/07 10:49:04;;;;;;;11.53;3.80;;;;;;;29.95;37.26;101067.06;4984180;28;20405;-76
2023/07/07 10:51:45;;;;;;;8.57;4.00;;;;;;;29.97;37.54;101064.84;4966513;28;20594;-76
2023/07/07 10:54:34;;;;;;;13.43;4.90;;;;;;;30.49;36.78;101062.28;4988648;28;20459;-76
2023/07/07 10:57:15;;;;;;;10.13;3.33;;;;;;;30.25;36.46;101070.50;4991254;28;20879;-75
2023/07/07 10:59:58;;;;;;;12.63;3.93;;;;;;;30.22;37.01;101076.56;4993681;28;20401;-75
2023/07/07 11:02:45;;;;;;;10.27;4.35;;;;;;;30.26;37.11;101058.47;4984648;28;20807;-74
2023/07/07 11:05:20;;;;;;;13.30;4.60;;;;;;;30.44;37.52;101054.94;4985202;28;20417;-78
2023/07/07 11:08:04;;;;;;;11.82;4.28;;;;;;;30.79;36.32;101050.06;4986153;28;20915;-78
2023/07/07 11:10:33;;;;;;;7.32;4.00;;;;;;;30.44;36.90;101049.47;4996631;28;20743;-76
2023/07/07 11:13:07;;;;;;;11.65;4.22;;;;;;;30.71;36.77;101030.75;4994779;28;20389;-76
2023/07/07 11:15:50;;;;;;;9.32;3.83;;;;;;;30.75;35.56;101053.66;5011054;28;20393;-74
2023/07/07 11:18:41;;;;;;;10.52;4.10;;;;;;;30.51;35.43;101024.50;4994444;28;20390;-77
2023/07/07 11:21:37;;;;;;;9.40;4.00;;;;;;;30.72;35.17;101043.31;4995735;28;20389;-76
2023/07/07 11:24:20;;;;;;;11.35;3.83;;;;;;;30.59;35.84;101021.06;4994813;28;20736;-76
2023/07/07 11:27:16;;;;;;;10.77;3.78;;;;;;;30.44;35.34;101033.06;4995744;28;20444;-76
2023/07/07 11:29:54;;;;;;;14.43;4.23;;;;;;;30.35;36.29;101039.50;4978511;28;20429;-76